createdAt,value
2018-06-04T00:01:18.149Z,28.50
2018-06-04T00:03:48.746Z,33.25
2018-06-04T00:06:19.645Z,30.75
2018-06-04T00:08:50.589Z,32.25
2018-06-04T00:11:21.134Z,32.50
2018-06-04T00:13:51.932Z,32.75
2018-06-04T00:16:22.807Z,33.00
2018-06-04T00:18:53.244Z,31.75
2018-06-04T00:21:24.663Z,29.75
2018-06-04T00:23:55.091Z,29.75
2018-06-04T00:26:27.796Z,36.50
2018-06-04T00:28:59.625Z,32.75
2018-06-04T00:31:30.625Z,31.75
2018-06-04T00:34:01.110Z,31.25
2018-06-04T00:36:32.098Z,36.25
2018-06-04T00:39:02.950Z,32.25
2018-06-04T00:41:33.432Z,34.50
2018-06-04T00:44:04.234Z,36.50
2018-06-04T00:46:35.085Z,33.50
2018-06-04T00:49:05.549Z,33.50
2018-06-04T00:51:36.201Z,32.75
2018-06-04T00:54:08.645Z,34.50
2018-06-04T00:56:42.386Z,30.25
2018-06-04T00:59:14.566Z,29.75
2018-06-04T01:01:46.213Z,33.75
2018-06-04T01:04:17.563Z,35.25
2018-06-04T01:06:48.107Z,31.50
2018-06-04T01:09:20.373Z,30.75
2018-06-04T01:11:50.914Z,32.00
2018-06-04T01:14:21.718Z,30.50
2018-06-04T01:17:00.470Z,33.00
2018-06-04T01:19:32.387Z,30.25
2018-06-04T01:22:03.786Z,34.25
2018-06-04T01:24:34.389Z,36.75
2018-06-04T01:27:05.006Z,29.25
2018-06-04T01:29:36.124Z,34.75
2018-06-04T01:32:07.222Z,39.00
2018-06-04T01:34:37.761Z,40.25
2018-06-04T01:37:09.420Z,40.50
2018-06-04T01:39:40.293Z,35.00
2018-06-04T01:42:10.911Z,39.25
2018-06-04T01:44:41.807Z,39.75
2018-06-04T01:47:13.049Z,37.00
2018-06-04T01:49:44.079Z,42.25
2018-06-04T01:52:18.115Z,38.00
2018-06-04T01:54:49.658Z,39.00
2018-06-04T01:57:20.161Z,41.25
2018-06-04T01:59:50.511Z,44.00
2018-06-04T02:02:22.302Z,36.00
2018-06-04T02:04:54.563Z,39.50
2018-06-04T02:07:25.455Z,40.00
2018-06-04T02:10:00.935Z,40.50
2018-06-04T02:12:31.508Z,35.25
2018-06-04T02:15:06.337Z,37.00
2018-06-04T02:17:37.528Z,47.00
2018-06-04T02:20:08.547Z,39.50
2018-06-04T02:22:39.641Z,43.00
2018-06-04T02:25:10.407Z,38.00
2018-06-04T02:27:44.534Z,40.25
2018-06-04T02:30:17.680Z,41.75
2018-06-04T02:32:49.854Z,40.25
2018-06-04T02:35:21.890Z,34.25
2018-06-04T02:37:55.197Z,38.75
2018-06-04T02:40:25.950Z,39.00
2018-06-04T02:42:56.555Z,38.50
2018-06-04T02:45:27.334Z,48.00
2018-06-04T02:47:58.413Z,41.00
2018-06-04T02:50:29.500Z,40.75
2018-06-04T02:53:07.795Z,40.25
2018-06-04T02:55:42.725Z,40.25
2018-06-04T02:58:13.139Z,34.25
2018-06-04T03:00:43.794Z,34.00
2018-06-04T03:03:15.098Z,38.75
2018-06-04T03:05:47.246Z,36.25
2018-06-04T03:08:18.617Z,37.75
2018-06-04T03:10:49.649Z,41.75
2018-06-04T03:13:21.314Z,38.00
2018-06-04T03:15:54.188Z,46.50
2018-06-04T03:18:25.483Z,43.50
2018-06-04T03:20:57.095Z,41.50
2018-06-04T03:23:27.485Z,38.25
2018-06-04T03:25:57.760Z,37.25
2018-06-04T03:28:28.786Z,36.50
2018-06-04T03:30:59.818Z,43.25
2018-06-04T03:33:32.642Z,45.50
2018-06-04T03:36:05.543Z,36.25
2018-06-04T03:38:37.302Z,37.50
2018-06-04T03:41:08.283Z,41.75
2018-06-04T03:43:40.424Z,35.50
2018-06-04T03:46:10.857Z,40.00
2018-06-04T03:48:41.512Z,41.25
2018-06-04T03:51:12.501Z,41.00
2018-06-04T03:53:45.316Z,40.25
2018-06-04T03:56:16.305Z,42.50
2018-06-04T03:58:46.946Z,36.75
2018-06-04T04:01:17.560Z,38.00
2018-06-04T04:03:48.118Z,42.75
2018-06-04T04:06:18.645Z,40.00
2018-06-04T04:08:49.815Z,42.25
2018-06-04T04:11:20.274Z,36.00
2018-06-04T04:13:52.043Z,44.75
2018-06-04T04:16:23.674Z,37.75
2018-06-04T04:18:54.959Z,41.75
2018-06-04T04:21:26.457Z,37.25
2018-06-04T04:24:14.949Z,40.25
2018-06-04T04:26:45.752Z,42.75
2018-06-04T04:29:16.559Z,40.50
2018-06-04T04:31:49.678Z,36.25
2018-06-04T04:34:20.607Z,40.25
2018-06-04T04:36:51.550Z,42.25
2018-06-04T04:39:21.880Z,42.25
2018-06-04T04:41:52.586Z,45.25
2018-06-04T04:44:27.134Z,46.00
2018-06-04T04:46:58.979Z,47.00
2018-06-04T04:49:31.266Z,42.25
2018-06-04T04:52:01.989Z,51.00
2018-06-04T04:54:39.911Z,44.25
2018-06-04T04:57:10.310Z,44.50
2018-06-04T04:59:41.486Z,41.50
2018-06-04T05:02:16.646Z,43.25
2018-06-04T05:04:51.837Z,42.00
2018-06-04T05:07:22.741Z,41.50
2018-06-04T05:09:54.049Z,46.75
2018-06-04T05:12:25.209Z,44.00
2018-06-04T05:14:56.159Z,40.75
2018-06-04T05:17:28.119Z,40.50
2018-06-04T05:19:58.732Z,40.00
2018-06-04T05:22:29.540Z,41.75
2018-06-04T05:25:01.044Z,43.00
2018-06-04T05:27:33.923Z,47.25
2018-06-04T05:30:07.951Z,44.25
2018-06-04T05:32:39.810Z,47.25
2018-06-04T05:35:21.671Z,41.75
2018-06-04T05:38:16.133Z,47.50
2018-06-04T05:40:47.205Z,42.75
2018-06-04T05:43:18.058Z,44.00
2018-06-04T05:45:49.927Z,43.50
2018-06-04T05:48:20.532Z,42.00
2018-06-04T05:50:51.934Z,41.25
2018-06-04T05:53:29.010Z,46.25
2018-06-04T05:56:15.067Z,42.00
2018-06-04T05:58:46.895Z,43.75
2018-06-04T06:01:22.132Z,37.00
2018-06-04T06:03:53.149Z,43.75
2018-06-04T06:06:24.859Z,43.00
2018-06-04T06:08:58.163Z,40.00
2018-06-04T06:11:38.761Z,42.75
2018-06-04T06:14:17.536Z,43.00
2018-06-04T06:16:54.418Z,45.00
2018-06-04T06:19:27.017Z,39.00
2018-06-04T06:21:58.197Z,40.00
2018-06-04T06:24:33.431Z,38.75
2018-06-04T06:27:05.409Z,40.50
2018-06-04T06:29:37.791Z,35.75
2018-06-04T06:32:19.162Z,37.25
2018-06-04T06:34:53.578Z,37.75
2018-06-04T06:37:24.382Z,36.00
2018-06-04T06:39:56.289Z,42.50
2018-06-04T06:42:29.866Z,38.00
2018-06-04T06:45:14.866Z,42.25
2018-06-04T06:47:47.673Z,41.50
2018-06-04T06:50:24.919Z,37.00
2018-06-04T06:52:56.584Z,43.50
2018-06-04T06:55:29.080Z,45.25
2018-06-04T06:58:07.699Z,35.00
2018-06-04T07:00:42.139Z,36.25
2018-06-04T07:03:13.635Z,34.00
2018-06-04T07:05:45.504Z,35.50
2018-06-04T07:08:26.541Z,40.75
2018-06-04T07:10:59.334Z,39.75
2018-06-04T07:13:31.780Z,43.75
2018-06-04T07:16:02.991Z,31.75
2018-06-04T07:18:35.884Z,33.50
2018-06-04T07:21:13.625Z,31.50
2018-06-04T07:23:55.359Z,37.25
2018-06-04T07:26:31.432Z,33.75
2018-06-04T07:29:14.774Z,31.75
2018-06-04T07:31:49.081Z,36.00
2018-06-04T07:34:20.757Z,35.25
2018-06-04T07:36:57.925Z,38.00
2018-06-04T07:39:29.470Z,32.00
2018-06-04T07:42:05.595Z,31.50
2018-06-04T07:44:37.122Z,34.00
2018-06-04T07:49:40.684Z,33.00
2018-06-04T07:52:11.575Z,30.50
2018-06-04T07:54:46.403Z,32.75
2018-06-04T07:57:18.888Z,31.25
2018-06-04T07:59:56.375Z,28.75
2018-06-04T08:02:27.868Z,26.75
2018-06-04T08:04:59.465Z,28.50
2018-06-04T08:07:33.768Z,27.00
2018-06-04T08:10:10.619Z,31.50
2018-06-04T08:12:48.207Z,24.00
2018-06-04T08:15:22.911Z,27.25
2018-06-04T08:17:53.927Z,32.75
2018-06-04T08:20:30.235Z,30.25
2018-06-04T08:25:35.829Z,27.50
2018-06-04T08:28:09.933Z,33.25
2018-06-04T08:30:42.114Z,31.75
2018-06-04T08:33:27.237Z,32.50
2018-06-04T08:35:58.158Z,28.75
2018-06-04T08:38:31.395Z,28.00
2018-06-04T08:41:03.175Z,28.25
2018-06-04T08:43:35.371Z,30.75
2018-06-04T08:49:11.208Z,25.50
2018-06-04T08:51:46.986Z,25.50
2018-06-04T08:54:22.631Z,17.00
2018-06-04T08:56:54.799Z,17.75
2018-06-04T08:59:26.678Z,22.00
2018-06-04T09:02:20.212Z,22.75
2018-06-04T09:04:52.570Z,20.75
2018-06-04T09:07:31.717Z,23.00
2018-06-04T09:12:50.893Z,21.25
2018-06-04T09:15:24.616Z,22.00
2018-06-04T09:18:00.486Z,25.75
2018-06-04T09:20:37.027Z,21.00
2018-06-04T09:23:33.061Z,24.50
2018-06-04T09:29:33.746Z,23.00
2018-06-04T09:32:05.770Z,19.00
2018-06-04T09:34:38.369Z,21.50
2018-06-04T09:37:16.557Z,20.00
2018-06-04T09:39:56.154Z,21.25
2018-06-04T09:42:41.305Z,19.25
2018-06-04T09:45:26.116Z,17.75
2018-06-04T09:47:58.543Z,20.00
2018-06-04T09:50:30.651Z,18.00
2018-06-04T09:53:05.583Z,19.75
2018-06-04T09:55:38.799Z,23.00
2018-06-04T09:58:25.442Z,24.50
2018-06-04T10:01:02.324Z,21.00
2018-06-04T10:03:38.151Z,20.50
2018-06-04T10:06:27.681Z,21.75
2018-06-04T10:09:06.886Z,22.50
2018-06-04T10:11:57.316Z,19.50
2018-06-04T10:14:46.430Z,28.50
2018-06-04T10:17:30.543Z,29.50
2018-06-04T10:20:03.577Z,27.00
2018-06-04T10:22:35.276Z,19.75
2018-06-04T10:25:09.452Z,23.25
2018-06-04T10:28:05.073Z,17.75
2018-06-04T10:30:50.940Z,20.25
2018-06-04T10:33:47.223Z,21.25
2018-06-04T10:38:54.281Z,22.75
2018-06-04T10:41:35.959Z,20.00
2018-06-04T10:44:17.570Z,22.50
2018-06-04T10:46:51.607Z,24.25
2018-06-04T10:49:26.564Z,20.25
2018-06-04T10:52:20.190Z,20.25
2018-06-04T10:55:00.863Z,20.50
2018-06-04T10:57:50.185Z,22.50
2018-06-04T11:00:34.084Z,23.00
2018-06-04T11:03:09.995Z,26.00
2018-06-04T11:05:45.030Z,22.00
2018-06-04T11:08:17.699Z,21.75
2018-06-04T11:10:49.389Z,24.25
2018-06-04T11:13:20.070Z,20.50
2018-06-04T11:15:52.479Z,26.25
2018-06-04T11:18:32.170Z,20.75
2018-06-04T11:21:07.040Z,22.25
2018-06-04T11:23:40.764Z,16.75
2018-06-04T11:26:12.491Z,16.75
2018-06-04T11:28:48.623Z,22.00
2018-06-04T11:31:23.857Z,21.75
2018-06-04T11:33:57.209Z,20.50
2018-06-04T11:36:41.557Z,24.00
2018-06-04T11:39:20.353Z,17.00
2018-06-04T11:41:55.788Z,18.75
2018-06-04T11:44:28.491Z,21.75
2018-06-04T11:47:03.987Z,20.00
2018-06-04T11:49:43.777Z,23.00
2018-06-04T11:52:22.644Z,23.75
2018-06-04T11:55:01.992Z,20.50
2018-06-04T11:57:36.733Z,22.25
2018-06-04T12:00:15.507Z,22.00
2018-06-04T12:02:48.233Z,19.75
2018-06-04T12:05:24.428Z,22.00
2018-06-04T12:08:05.880Z,23.75
2018-06-04T12:13:31.287Z,25.00
2018-06-04T12:16:03.833Z,21.50
2018-06-04T12:18:37.176Z,23.50
2018-06-04T12:21:09.717Z,26.00
2018-06-04T12:26:38.265Z,20.75
2018-06-04T12:29:10.714Z,25.50
2018-06-04T12:31:47.141Z,25.25
2018-06-04T12:34:23.817Z,22.00
2018-06-04T12:37:05.400Z,22.75
2018-06-04T12:39:46.400Z,25.25
2018-06-04T12:42:22.399Z,27.00
2018-06-04T12:44:54.317Z,23.75
2018-06-04T12:47:26.277Z,22.50
2018-06-04T12:50:05.286Z,22.25
2018-06-04T12:52:42.523Z,25.00
2018-06-04T12:55:23.669Z,24.25
2018-06-04T12:58:06.501Z,22.75
2018-06-04T13:00:42.687Z,21.00
2018-06-04T13:03:15.008Z,24.50
2018-06-04T13:05:50.427Z,20.75
2018-06-04T13:08:30.738Z,17.50
2018-06-04T13:11:06.586Z,20.25
2018-06-04T13:13:53.286Z,27.00
2018-06-04T13:16:40.292Z,20.50
2018-06-04T13:19:14.659Z,22.00
2018-06-04T13:21:47.680Z,18.00
2018-06-04T13:24:21.658Z,17.50
2018-06-04T13:27:07.087Z,21.75
2018-06-04T13:30:16.113Z,18.00
2018-06-04T13:35:41.566Z,30.00
2018-06-04T13:38:12.795Z,32.25
2018-06-04T13:40:53.584Z,23.50
2018-06-04T13:43:30.472Z,23.75
2018-06-04T13:46:26.594Z,22.75
2018-06-04T13:48:59.404Z,32.75
2018-06-04T13:51:34.644Z,31.00
2018-06-04T13:54:15.910Z,33.50
2018-06-04T13:56:53.997Z,25.25
2018-06-04T13:59:29.523Z,25.50
2018-06-04T14:02:10.151Z,25.25
2018-06-04T14:04:45.384Z,29.75
2018-06-04T14:07:20.857Z,32.25
2018-06-04T14:09:54.494Z,37.75
2018-06-04T14:12:36.918Z,43.25
2018-06-04T14:15:33.220Z,35.50
2018-06-04T14:18:05.699Z,36.75
2018-06-04T14:20:45.368Z,36.00
2018-06-04T14:23:22.024Z,33.75
2018-06-04T14:26:00.546Z,33.00
2018-06-04T14:28:51.483Z,29.75
2018-06-04T14:31:28.548Z,31.00
2018-06-04T14:34:03.184Z,28.75
2018-06-04T14:36:46.976Z,29.25
2018-06-04T14:39:23.086Z,33.25
2018-06-04T14:47:33.103Z,33.00
2018-06-04T14:50:07.172Z,31.25
2018-06-04T14:52:43.708Z,33.75
2018-06-04T14:55:32.085Z,28.50
2018-06-04T14:58:13.954Z,30.50
2018-06-04T15:01:02.850Z,31.75
2018-06-04T15:03:34.815Z,32.25
2018-06-04T15:06:13.364Z,32.25
2018-06-04T15:08:46.033Z,35.25
2018-06-04T15:11:17.842Z,37.00
2018-06-04T15:14:03.514Z,42.50
2018-06-04T15:16:39.493Z,43.25
2018-06-04T15:19:16.600Z,46.00
2018-06-04T15:25:28.743Z,44.25
2018-06-04T15:28:06.082Z,45.50
2018-06-04T15:30:51.762Z,47.00
2018-06-04T15:33:33.615Z,45.75
2018-06-04T15:36:07.746Z,44.25
2018-06-04T15:38:44.717Z,44.75
2018-06-04T15:41:19.427Z,46.00
2018-06-04T15:43:51.665Z,41.75
2018-06-04T15:46:29.594Z,46.00
2018-06-04T15:49:08.128Z,44.00
2018-06-04T15:51:52.462Z,45.25
2018-06-04T15:54:31.382Z,43.75
2018-06-04T15:57:07.063Z,42.25
2018-06-04T15:59:46.924Z,44.50
2018-06-04T16:02:32.497Z,48.00
2018-06-04T16:05:03.256Z,48.75
2018-06-04T16:07:42.161Z,48.75
2018-06-04T16:13:10.065Z,48.25
2018-06-04T16:15:51.510Z,48.50
2018-06-04T16:18:35.761Z,50.00
2018-06-04T16:24:09.963Z,50.25
2018-06-04T16:26:51.194Z,48.00
2018-06-04T16:29:26.580Z,44.00
2018-06-04T16:32:04.214Z,47.50
2018-06-04T16:34:42.408Z,45.75
2018-06-04T16:39:50.529Z,47.50
2018-06-04T16:42:27.479Z,48.50
2018-06-04T16:45:06.863Z,47.50
2018-06-04T16:48:05.024Z,46.75
2018-06-04T16:50:53.655Z,47.75
2018-06-04T16:53:29.224Z,45.00
2018-06-04T16:56:00.781Z,47.25
2018-06-04T17:01:22.459Z,45.50
2018-06-04T17:03:56.657Z,43.50
2018-06-04T17:06:31.331Z,45.75
2018-06-04T17:09:08.646Z,47.25
2018-06-04T17:11:44.572Z,48.50
2018-06-04T17:14:55.684Z,46.25
2018-06-04T17:17:37.232Z,44.75
2018-06-04T17:20:11.348Z,46.00
2018-06-04T17:22:51.757Z,46.25
2018-06-04T17:25:33.304Z,45.50
2018-06-04T17:28:10.556Z,42.25
2018-06-04T17:30:49.192Z,44.25
2018-06-04T17:33:36.439Z,46.25
2018-06-04T17:36:16.403Z,45.75
2018-06-04T17:38:57.392Z,41.00
2018-06-04T17:41:32.108Z,45.50
2018-06-04T17:44:04.353Z,42.50
2018-06-04T17:46:45.533Z,46.00
2018-06-04T17:49:17.500Z,44.75
2018-06-04T17:51:48.577Z,45.25
2018-06-04T17:54:27.200Z,46.00
2018-06-04T17:57:12.281Z,44.50
2018-06-04T17:59:53.316Z,40.25
2018-06-04T18:02:30.359Z,39.75
2018-06-04T18:05:11.263Z,41.25
2018-06-04T18:07:54.208Z,43.25
2018-06-04T18:10:46.391Z,35.75
2018-06-04T18:13:19.371Z,38.25
2018-06-04T18:15:59.784Z,37.50
2018-06-04T18:18:39.440Z,39.00
2018-06-04T18:21:12.366Z,37.50
2018-06-04T18:23:54.323Z,37.75
2018-06-04T18:26:41.106Z,39.50
2018-06-04T18:29:31.291Z,38.00
2018-06-04T18:32:11.682Z,43.25
2018-06-04T18:34:52.742Z,38.50
2018-06-04T18:37:32.933Z,40.50
2018-06-04T18:40:33.577Z,33.75
2018-06-04T18:43:19.871Z,33.00
2018-06-04T18:45:52.480Z,37.75
2018-06-04T18:51:14.006Z,37.50
2018-06-04T18:54:00.427Z,37.00
2018-06-04T18:56:47.920Z,35.25
2018-06-04T18:59:20.762Z,40.25
2018-06-04T19:01:57.243Z,35.00
2018-06-04T19:04:31.988Z,41.25
2018-06-04T19:07:17.265Z,36.75
2018-06-04T19:10:11.335Z,37.75
2018-06-04T19:12:50.599Z,38.50
2018-06-04T19:15:49.238Z,32.00
2018-06-04T19:18:35.591Z,37.25
2018-06-04T19:21:18.823Z,36.00
2018-06-04T19:23:53.739Z,36.75
2018-06-04T19:26:35.771Z,36.75
2018-06-04T19:29:14.413Z,37.00
2018-06-04T19:31:51.745Z,33.00
2018-06-04T19:35:01.526Z,35.50
2018-06-04T19:37:44.506Z,37.50
2018-06-04T19:40:38.430Z,33.00
2018-06-04T19:46:39.225Z,35.50
2018-06-04T19:49:16.313Z,33.00
2018-06-04T19:51:49.739Z,33.75
2018-06-04T19:54:27.251Z,35.00
2018-06-04T19:57:00.157Z,31.75
2018-06-04T19:59:34.334Z,34.25
2018-06-04T20:02:17.205Z,33.50
2018-06-04T20:05:04.895Z,34.50
2018-06-04T20:07:36.276Z,30.75
2018-06-04T20:13:25.925Z,33.25
2018-06-04T20:16:02.753Z,37.75
2018-06-04T20:18:41.439Z,35.25
2018-06-04T20:21:17.036Z,35.25
2018-06-04T20:23:51.355Z,34.25
2018-06-04T20:26:31.348Z,35.00
2018-06-04T20:29:05.182Z,36.25
2018-06-04T20:31:41.295Z,35.25
2018-06-04T20:34:16.861Z,31.75
2018-06-04T20:39:41.622Z,34.25
2018-06-04T20:42:18.491Z,34.50
2018-06-04T20:44:57.082Z,34.00
2018-06-04T20:47:50.552Z,36.00
2018-06-04T20:50:27.013Z,37.00
2018-06-04T20:53:11.371Z,40.25
2018-06-04T20:55:47.390Z,38.50
2018-06-04T20:58:20.497Z,37.00
2018-06-04T21:00:56.160Z,33.00
2018-06-04T21:03:34.063Z,36.25
2018-06-04T21:06:07.429Z,33.75
2018-06-04T21:08:50.881Z,39.00
2018-06-04T21:11:26.433Z,36.25
2018-06-04T21:14:10.382Z,35.50
2018-06-04T21:16:46.936Z,34.25
2018-06-04T21:19:20.475Z,36.75
2018-06-04T21:22:02.326Z,34.00
2018-06-04T21:24:38.001Z,33.50
2018-06-04T21:27:18.200Z,35.75
2018-06-04T21:29:52.810Z,37.50
2018-06-04T21:32:28.349Z,39.25
2018-06-04T21:35:00.054Z,38.25
2018-06-04T21:43:03.830Z,33.50
2018-06-04T21:45:39.644Z,42.00
2018-06-04T21:48:17.790Z,39.50
2018-06-04T21:50:54.836Z,41.75
2018-06-04T21:53:28.975Z,38.50
2018-06-04T21:56:07.635Z,40.00
2018-06-04T21:59:04.463Z,38.25
2018-06-04T22:04:32.547Z,41.50
2018-06-04T22:07:05.389Z,38.50
2018-06-04T22:09:46.955Z,39.50
2018-06-04T22:12:28.404Z,41.25
2018-06-04T22:15:09.765Z,39.50
2018-06-04T22:17:48.664Z,39.75
2018-06-04T22:20:23.925Z,40.75
2018-06-04T22:22:56.053Z,37.00
2018-06-04T22:25:33.023Z,36.00
2018-06-04T22:28:06.594Z,35.25
2018-06-04T22:30:39.772Z,36.00
2018-06-04T22:33:19.031Z,41.75
2018-06-04T22:35:53.089Z,38.25
2018-06-04T22:38:30.763Z,40.50
2018-06-04T22:41:05.700Z,37.50
2018-06-04T22:43:39.488Z,38.25
2018-06-04T22:46:12.524Z,35.50
2018-06-04T22:48:51.112Z,37.00
2018-06-04T22:54:13.569Z,35.00
2018-06-04T22:56:44.428Z,39.25
2018-06-04T22:59:15.654Z,36.50
2018-06-04T23:01:46.470Z,37.50
2018-06-04T23:04:22.212Z,38.50
2018-06-04T23:06:55.642Z,37.25
2018-06-04T23:09:26.405Z,38.75
2018-06-04T23:11:57.332Z,39.75
2018-06-04T23:14:30.605Z,40.00
2018-06-04T23:17:02.027Z,40.00
2018-06-04T23:19:34.098Z,42.25
2018-06-04T23:22:05.206Z,41.25
2018-06-04T23:27:17.929Z,42.25
2018-06-04T23:29:49.468Z,36.50
2018-06-04T23:32:25.028Z,39.00
2018-06-04T23:35:02.435Z,38.75
2018-06-04T23:37:35.101Z,33.25
2018-06-04T23:40:07.777Z,39.75
2018-06-04T23:42:56.986Z,40.00
2018-06-04T23:45:30.504Z,40.00
2018-06-04T23:48:02.733Z,44.25
2018-06-04T23:50:33.767Z,43.50
2018-06-04T23:53:09.024Z,38.50
2018-06-04T23:55:43.009Z,39.75
2018-06-04T23:58:18.639Z,44.00
